sensor_id;sensor_type;location;lat;lon;timestamp;P1;durP1;ratioP1;P2;durP2;ratioP2
68921;SDS011;55959;51.244;5.724;2023-02-15T00:00:30;18.60;;;15.33;;
68921;SDS011;55959;51.244;5.724;2023-02-15T00:02:56;17.87;;;13.40;;
68921;SDS011;55959;51.244;5.724;2023-02-15T00:05:22;19.77;;;14.80;;
68921;SDS011;55959;51.244;5.724;2023-02-15T00:07:47;18.20;;;13.93;;
68921;SDS011;55959;51.244;5.724;2023-02-15T00:10:13;20.33;;;13.77;;
68921;SDS011;55959;51.244;5.724;2023-02-15T00:12:39;17.73;;;14.03;;
68921;SDS011;55959;51.244;5.724;2023-02-15T00:15:05;20.63;;;13.67;;
68921;SDS011;55959;51.244;5.724;2023-02-15T00:17:31;16.83;;;14.00;;
68921;SDS011;55959;51.244;5.724;2023-02-15T00:19:56;19.03;;;13.73;;
68921;SDS011;55959;51.244;5.724;2023-02-15T00:22:22;18.73;;;14.33;;
68921;SDS011;55959;51.244;5.724;2023-02-15T00:24:48;19.00;;;14.07;;
68921;SDS011;55959;51.244;5.724;2023-02-15T00:27:15;18.87;;;13.97;;
68921;SDS011;55959;51.244;5.724;2023-02-15T00:29:40;18.17;;;14.30;;
68921;SDS011;55959;51.244;5.724;2023-02-15T00:32:06;19.00;;;13.87;;
68921;SDS011;55959;51.244;5.724;2023-02-15T00:34:32;17.50;;;13.83;;
68921;SDS011;55959;51.244;5.724;2023-02-15T00:36:57;16.27;;;13.53;;
68921;SDS011;55959;51.244;5.724;2023-02-15T00:39:23;20.47;;;13.47;;
68921;SDS011;55959;51.244;5.724;2023-02-15T00:41:49;17.30;;;12.47;;
68921;SDS011;55959;51.244;5.724;2023-02-15T00:44:15;18.87;;;14.10;;
68921;SDS011;55959;51.244;5.724;2023-02-15T00:46:41;17.10;;;13.60;;
68921;SDS011;55959;51.244;5.724;2023-02-15T00:49:07;20.57;;;14.63;;
68921;SDS011;55959;51.244;5.724;2023-02-15T00:51:33;18.10;;;13.00;;
68921;SDS011;55959;51.244;5.724;2023-02-15T00:53:59;18.80;;;13.30;;
68921;SDS011;55959;51.244;5.724;2023-02-15T00:56:24;21.03;;;13.60;;
68921;SDS011;55959;51.244;5.724;2023-02-15T00:58:53;17.00;;;12.37;;
68921;SDS011;55959;51.244;5.724;2023-02-15T01:01:19;18.00;;;14.03;;
68921;SDS011;55959;51.244;5.724;2023-02-15T01:03:46;18.70;;;13.17;;
68921;SDS011;55959;51.244;5.724;2023-02-15T01:06:12;18.27;;;13.53;;
68921;SDS011;55959;51.244;5.724;2023-02-15T01:08:40;18.07;;;13.70;;
68921;SDS011;55959;51.244;5.724;2023-02-15T01:11:06;16.90;;;13.57;;
68921;SDS011;55959;51.244;5.724;2023-02-15T01:13:46;17.87;;;13.67;;
68921;SDS011;55959;51.244;5.724;2023-02-15T01:16:14;16.90;;;13.17;;
68921;SDS011;55959;51.244;5.724;2023-02-15T01:18:40;17.13;;;12.90;;
68921;SDS011;55959;51.244;5.724;2023-02-15T01:21:13;18.90;;;12.97;;
68921;SDS011;55959;51.244;5.724;2023-02-15T01:23:45;16.13;;;13.00;;
68921;SDS011;55959;51.244;5.724;2023-02-15T01:26:12;15.60;;;13.00;;
68921;SDS011;55959;51.244;5.724;2023-02-15T01:28:39;16.67;;;12.43;;
68921;SDS011;55959;51.244;5.724;2023-02-15T01:31:08;19.67;;;13.43;;
68921;SDS011;55959;51.244;5.724;2023-02-15T01:33:37;14.53;;;12.40;;
68921;SDS011;55959;51.244;5.724;2023-02-15T01:36:04;17.30;;;13.07;;
68921;SDS011;55959;51.244;5.724;2023-02-15T01:38:31;18.23;;;13.50;;
68921;SDS011;55959;51.244;5.724;2023-02-15T01:40:58;16.70;;;13.03;;
68921;SDS011;55959;51.244;5.724;2023-02-15T01:43:45;19.00;;;13.17;;
68921;SDS011;55959;51.244;5.724;2023-02-15T01:46:14;17.20;;;13.10;;
68921;SDS011;55959;51.244;5.724;2023-02-15T01:48:46;16.73;;;13.67;;
68921;SDS011;55959;51.244;5.724;2023-02-15T01:51:14;18.03;;;12.97;;
68921;SDS011;55959;51.244;5.724;2023-02-15T01:53:47;17.50;;;13.20;;
68921;SDS011;55959;51.244;5.724;2023-02-15T01:56:23;17.90;;;12.27;;
68921;SDS011;55959;51.244;5.724;2023-02-15T01:58:54;17.80;;;13.47;;
68921;SDS011;55959;51.244;5.724;2023-02-15T02:01:25;16.93;;;13.50;;
68921;SDS011;55959;51.244;5.724;2023-02-15T02:06:20;13.97;;;11.50;;
68921;SDS011;55959;51.244;5.724;2023-02-15T02:08:47;15.43;;;12.70;;
68921;SDS011;55959;51.244;5.724;2023-02-15T02:11:14;17.30;;;13.57;;
68921;SDS011;55959;51.244;5.724;2023-02-15T02:13:40;18.73;;;12.87;;
68921;SDS011;55959;51.244;5.724;2023-02-15T02:19:28;18.27;;;12.13;;
68921;SDS011;55959;51.244;5.724;2023-02-15T02:34:32;16.70;;;12.27;;
68921;SDS011;55959;51.244;5.724;2023-02-15T02:42:43;14.60;;;12.17;;
68921;SDS011;55959;51.244;5.724;2023-02-15T02:45:17;15.47;;;12.57;;
68921;SDS011;55959;51.244;5.724;2023-02-15T02:48:14;15.73;;;12.30;;
68921;SDS011;55959;51.244;5.724;2023-02-15T02:50:45;16.77;;;12.43;;
68921;SDS011;55959;51.244;5.724;2023-02-15T02:53:10;17.03;;;12.60;;
68921;SDS011;55959;51.244;5.724;2023-02-15T03:06:22;16.87;;;12.13;;
68921;SDS011;55959;51.244;5.724;2023-02-15T03:09:15;17.73;;;11.90;;
68921;SDS011;55959;51.244;5.724;2023-02-15T03:12:07;16.93;;;12.27;;
68921;SDS011;55959;51.244;5.724;2023-02-15T03:14:53;16.87;;;12.53;;
68921;SDS011;55959;51.244;5.724;2023-02-15T03:17:29;15.43;;;12.07;;
68921;SDS011;55959;51.244;5.724;2023-02-15T03:20:17;16.37;;;11.67;;
68921;SDS011;55959;51.244;5.724;2023-02-15T03:23:33;17.37;;;13.30;;
68921;SDS011;55959;51.244;5.724;2023-02-15T03:25:44;16.73;;;12.27;;
68921;SDS011;55959;51.244;5.724;2023-02-15T03:28:17;17.63;;;12.80;;
68921;SDS011;55959;51.244;5.724;2023-02-15T03:30:52;20.43;;;13.47;;
68921;SDS011;55959;51.244;5.724;2023-02-15T03:33:20;16.80;;;11.93;;
68921;SDS011;55959;51.244;5.724;2023-02-15T03:35:58;16.67;;;12.23;;
68921;SDS011;55959;51.244;5.724;2023-02-15T03:41:32;17.03;;;12.20;;
68921;SDS011;55959;51.244;5.724;2023-02-15T03:44:06;16.47;;;12.17;;
68921;SDS011;55959;51.244;5.724;2023-02-15T03:46:42;15.87;;;12.50;;
68921;SDS011;55959;51.244;5.724;2023-02-15T03:49:22;16.20;;;11.73;;
68921;SDS011;55959;51.244;5.724;2023-02-15T03:51:54;15.60;;;12.53;;
68921;SDS011;55959;51.244;5.724;2023-02-15T03:54:28;16.33;;;12.27;;
68921;SDS011;55959;51.244;5.724;2023-02-15T03:57:18;17.73;;;12.03;;
68921;SDS011;55959;51.244;5.724;2023-02-15T04:00:19;15.77;;;11.23;;
68921;SDS011;55959;51.244;5.724;2023-02-15T04:05:40;18.83;;;13.63;;
68921;SDS011;55959;51.244;5.724;2023-02-15T04:08:08;15.47;;;12.03;;
68921;SDS011;55959;51.244;5.724;2023-02-15T04:10:35;16.87;;;12.60;;
68921;SDS011;55959;51.244;5.724;2023-02-15T04:13:21;15.87;;;12.20;;
68921;SDS011;55959;51.244;5.724;2023-02-15T04:15:56;14.37;;;11.37;;
68921;SDS011;55959;51.244;5.724;2023-02-15T04:18:27;15.90;;;12.47;;
68921;SDS011;55959;51.244;5.724;2023-02-15T04:21:13;17.13;;;12.40;;
68921;SDS011;55959;51.244;5.724;2023-02-15T04:23:57;17.60;;;13.07;;
68921;SDS011;55959;51.244;5.724;2023-02-15T04:26:41;17.10;;;12.50;;
68921;SDS011;55959;51.244;5.724;2023-02-15T04:29:07;16.80;;;12.13;;
68921;SDS011;55959;51.244;5.724;2023-02-15T04:31:33;16.53;;;12.87;;
68921;SDS011;55959;51.244;5.724;2023-02-15T04:33:58;17.33;;;12.23;;
68921;SDS011;55959;51.244;5.724;2023-02-15T04:36:24;15.77;;;12.53;;
68921;SDS011;55959;51.244;5.724;2023-02-15T04:38:50;15.90;;;12.30;;
68921;SDS011;55959;51.244;5.724;2023-02-15T04:41:16;17.60;;;12.40;;
68921;SDS011;55959;51.244;5.724;2023-02-15T04:43:41;16.43;;;12.93;;
68921;SDS011;55959;51.244;5.724;2023-02-15T04:46:07;16.93;;;13.00;;
68921;SDS011;55959;51.244;5.724;2023-02-15T04:48:33;17.33;;;12.77;;
68921;SDS011;55959;51.244;5.724;2023-02-15T04:50:58;16.97;;;12.67;;
68921;SDS011;55959;51.244;5.724;2023-02-15T04:53:24;16.70;;;12.50;;
68921;SDS011;55959;51.244;5.724;2023-02-15T04:55:50;16.97;;;12.97;;
68921;SDS011;55959;51.244;5.724;2023-02-15T04:58:15;16.30;;;12.03;;
68921;SDS011;55959;51.244;5.724;2023-02-15T05:00:41;17.67;;;12.57;;
68921;SDS011;55959;51.244;5.724;2023-02-15T05:03:07;17.60;;;13.37;;
68921;SDS011;55959;51.244;5.724;2023-02-15T05:05:32;16.47;;;11.87;;
68921;SDS011;55959;51.244;5.724;2023-02-15T05:07:58;16.70;;;12.57;;
68921;SDS011;55959;51.244;5.724;2023-02-15T05:10:25;16.53;;;12.40;;
68921;SDS011;55959;51.244;5.724;2023-02-15T05:12:51;15.13;;;11.77;;
68921;SDS011;55959;51.244;5.724;2023-02-15T05:15:16;16.60;;;12.57;;
68921;SDS011;55959;51.244;5.724;2023-02-15T05:17:42;16.90;;;12.83;;
68921;SDS011;55959;51.244;5.724;2023-02-15T05:20:08;16.47;;;12.43;;
68921;SDS011;55959;51.244;5.724;2023-02-15T05:22:34;20.03;;;12.73;;
68921;SDS011;55959;51.244;5.724;2023-02-15T05:25:00;17.47;;;12.47;;
68921;SDS011;55959;51.244;5.724;2023-02-15T05:27:44;16.70;;;12.40;;
68921;SDS011;55959;51.244;5.724;2023-02-15T05:30:28;16.70;;;12.60;;
68921;SDS011;55959;51.244;5.724;2023-02-15T05:32:54;17.40;;;12.47;;
68921;SDS011;55959;51.244;5.724;2023-02-15T05:35:19;16.40;;;12.43;;
68921;SDS011;55959;51.244;5.724;2023-02-15T05:37:45;17.40;;;11.67;;
68921;SDS011;55959;51.244;5.724;2023-02-15T05:40:11;15.93;;;12.30;;
68921;SDS011;55959;51.244;5.724;2023-02-15T05:42:37;16.93;;;12.77;;
68921;SDS011;55959;51.244;5.724;2023-02-15T05:45:02;17.30;;;13.00;;
68921;SDS011;55959;51.244;5.724;2023-02-15T05:47:29;19.63;;;13.00;;
68921;SDS011;55959;51.244;5.724;2023-02-15T05:49:54;18.10;;;13.10;;
68921;SDS011;55959;51.244;5.724;2023-02-15T05:52:20;18.27;;;14.00;;
68921;SDS011;55959;51.244;5.724;2023-02-15T05:54:46;16.57;;;12.53;;
68921;SDS011;55959;51.244;5.724;2023-02-15T05:57:12;19.57;;;13.03;;
68921;SDS011;55959;51.244;5.724;2023-02-15T05:59:37;16.03;;;12.30;;
68921;SDS011;55959;51.244;5.724;2023-02-15T06:02:03;18.07;;;12.70;;
68921;SDS011;55959;51.244;5.724;2023-02-15T06:04:31;19.20;;;13.80;;
68921;SDS011;55959;51.244;5.724;2023-02-15T06:06:57;17.73;;;13.27;;
68921;SDS011;55959;51.244;5.724;2023-02-15T06:09:22;17.50;;;13.67;;
68921;SDS011;55959;51.244;5.724;2023-02-15T06:11:48;19.00;;;13.53;;
68921;SDS011;55959;51.244;5.724;2023-02-15T06:14:14;19.47;;;14.43;;
68921;SDS011;55959;51.244;5.724;2023-02-15T06:16:39;20.40;;;14.73;;
68921;SDS011;55959;51.244;5.724;2023-02-15T06:19:05;17.30;;;13.80;;
68921;SDS011;55959;51.244;5.724;2023-02-15T06:21:31;21.20;;;14.23;;
68921;SDS011;55959;51.244;5.724;2023-02-15T06:23:57;20.90;;;14.67;;
68921;SDS011;55959;51.244;5.724;2023-02-15T06:26:23;21.27;;;15.40;;
68921;SDS011;55959;51.244;5.724;2023-02-15T06:28:50;25.13;;;17.10;;
68921;SDS011;55959;51.244;5.724;2023-02-15T06:31:15;20.47;;;14.73;;
68921;SDS011;55959;51.244;5.724;2023-02-15T06:33:41;23.37;;;16.43;;
68921;SDS011;55959;51.244;5.724;2023-02-15T06:36:07;21.63;;;15.70;;
68921;SDS011;55959;51.244;5.724;2023-02-15T06:38:33;21.67;;;15.07;;
68921;SDS011;55959;51.244;5.724;2023-02-15T06:40:59;21.07;;;14.77;;
68921;SDS011;55959;51.244;5.724;2023-02-15T06:43:25;21.67;;;15.70;;
68921;SDS011;55959;51.244;5.724;2023-02-15T06:45:51;24.07;;;15.00;;
68921;SDS011;55959;51.244;5.724;2023-02-15T06:48:17;21.47;;;15.33;;
68921;SDS011;55959;51.244;5.724;2023-02-15T06:50:43;19.43;;;14.80;;
68921;SDS011;55959;51.244;5.724;2023-02-15T06:53:09;18.57;;;15.03;;
68921;SDS011;55959;51.244;5.724;2023-02-15T06:55:34;23.17;;;16.83;;
68921;SDS011;55959;51.244;5.724;2023-02-15T06:58:00;20.43;;;15.97;;
68921;SDS011;55959;51.244;5.724;2023-02-15T07:00:26;21.10;;;15.17;;
68921;SDS011;55959;51.244;5.724;2023-02-15T07:02:56;24.70;;;16.30;;
68921;SDS011;55959;51.244;5.724;2023-02-15T07:05:24;19.80;;;15.00;;
68921;SDS011;55959;51.244;5.724;2023-02-15T07:07:55;22.63;;;16.23;;
68921;SDS011;55959;51.244;5.724;2023-02-15T07:10:25;22.93;;;16.23;;
68921;SDS011;55959;51.244;5.724;2023-02-15T07:12:52;21.13;;;15.53;;
68921;SDS011;55959;51.244;5.724;2023-02-15T07:15:18;21.50;;;15.67;;
68921;SDS011;55959;51.244;5.724;2023-02-15T07:17:48;23.10;;;15.67;;
68921;SDS011;55959;51.244;5.724;2023-02-15T07:20:15;23.27;;;16.27;;
68921;SDS011;55959;51.244;5.724;2023-02-15T07:22:46;23.83;;;16.63;;
68921;SDS011;55959;51.244;5.724;2023-02-15T07:25:12;20.60;;;15.40;;
68921;SDS011;55959;51.244;5.724;2023-02-15T07:27:39;25.90;;;18.63;;
68921;SDS011;55959;51.244;5.724;2023-02-15T07:30:06;21.77;;;15.93;;
68921;SDS011;55959;51.244;5.724;2023-02-15T07:32:35;24.27;;;17.67;;
68921;SDS011;55959;51.244;5.724;2023-02-15T07:35:00;20.17;;;15.60;;
68921;SDS011;55959;51.244;5.724;2023-02-15T07:37:26;22.70;;;15.97;;
68921;SDS011;55959;51.244;5.724;2023-02-15T07:39:53;23.00;;;16.37;;
68921;SDS011;55959;51.244;5.724;2023-02-15T07:42:18;22.77;;;17.37;;
68921;SDS011;55959;51.244;5.724;2023-02-15T07:44:46;28.63;;;19.47;;
68921;SDS011;55959;51.244;5.724;2023-02-15T07:47:11;26.17;;;18.73;;
68921;SDS011;55959;51.244;5.724;2023-02-15T07:49:37;23.10;;;17.50;;
68921;SDS011;55959;51.244;5.724;2023-02-15T07:52:03;25.03;;;17.43;;
68921;SDS011;55959;51.244;5.724;2023-02-15T07:54:29;24.27;;;17.73;;
68921;SDS011;55959;51.244;5.724;2023-02-15T07:56:55;21.83;;;16.83;;
68921;SDS011;55959;51.244;5.724;2023-02-15T07:59:20;22.33;;;17.10;;
68921;SDS011;55959;51.244;5.724;2023-02-15T08:01:46;27.23;;;18.93;;
68921;SDS011;55959;51.244;5.724;2023-02-15T08:04:12;26.17;;;18.57;;
68921;SDS011;55959;51.244;5.724;2023-02-15T08:06:38;27.53;;;19.37;;
68921;SDS011;55959;51.244;5.724;2023-02-15T08:09:04;21.93;;;17.53;;
68921;SDS011;55959;51.244;5.724;2023-02-15T08:11:33;25.07;;;18.57;;
68921;SDS011;55959;51.244;5.724;2023-02-15T08:19:10;23.97;;;17.47;;
68921;SDS011;55959;51.244;5.724;2023-02-15T08:22:07;23.53;;;16.40;;
68921;SDS011;55959;51.244;5.724;2023-02-15T08:24:37;24.00;;;17.53;;
68921;SDS011;55959;51.244;5.724;2023-02-15T08:27:03;25.20;;;18.23;;
68921;SDS011;55959;51.244;5.724;2023-02-15T08:29:31;25.03;;;19.07;;
68921;SDS011;55959;51.244;5.724;2023-02-15T08:32:00;27.83;;;19.13;;
68921;SDS011;55959;51.244;5.724;2023-02-15T08:34:34;27.47;;;19.13;;
68921;SDS011;55959;51.244;5.724;2023-02-15T08:37:02;26.83;;;19.37;;
68921;SDS011;55959;51.244;5.724;2023-02-15T08:39:28;24.90;;;17.97;;
68921;SDS011;55959;51.244;5.724;2023-02-15T08:41:54;23.13;;;17.60;;
68921;SDS011;55959;51.244;5.724;2023-02-15T08:44:20;26.33;;;18.43;;
68921;SDS011;55959;51.244;5.724;2023-02-15T08:46:46;24.37;;;18.20;;
68921;SDS011;55959;51.244;5.724;2023-02-15T08:49:15;28.43;;;19.70;;
68921;SDS011;55959;51.244;5.724;2023-02-15T08:51:45;25.43;;;19.03;;
68921;SDS011;55959;51.244;5.724;2023-02-15T08:54:13;25.67;;;18.20;;
68921;SDS011;55959;51.244;5.724;2023-02-15T08:56:43;24.13;;;18.30;;
68921;SDS011;55959;51.244;5.724;2023-02-15T08:59:17;24.60;;;17.80;;
68921;SDS011;55959;51.244;5.724;2023-02-15T09:01:47;24.73;;;17.77;;
68921;SDS011;55959;51.244;5.724;2023-02-15T09:04:15;26.13;;;20.33;;
68921;SDS011;55959;51.244;5.724;2023-02-15T09:06:41;23.63;;;19.30;;
68921;SDS011;55959;51.244;5.724;2023-02-15T09:09:10;26.43;;;19.93;;
68921;SDS011;55959;51.244;5.724;2023-02-15T09:11:37;28.30;;;19.53;;
68921;SDS011;55959;51.244;5.724;2023-02-15T09:14:06;21.47;;;16.93;;
68921;SDS011;55959;51.244;5.724;2023-02-15T09:16:41;24.00;;;18.30;;
68921;SDS011;55959;51.244;5.724;2023-02-15T09:19:14;25.30;;;19.13;;
68921;SDS011;55959;51.244;5.724;2023-02-15T09:21:42;27.77;;;20.77;;
68921;SDS011;55959;51.244;5.724;2023-02-15T09:24:08;26.43;;;20.43;;
68921;SDS011;55959;51.244;5.724;2023-02-15T09:26:37;27.07;;;21.07;;
68921;SDS011;55959;51.244;5.724;2023-02-15T09:29:09;25.20;;;18.87;;
68921;SDS011;55959;51.244;5.724;2023-02-15T09:31:38;28.33;;;19.30;;
68921;SDS011;55959;51.244;5.724;2023-02-15T09:34:09;24.30;;;18.07;;
68921;SDS011;55959;51.244;5.724;2023-02-15T09:36:36;24.03;;;18.13;;
68921;SDS011;55959;51.244;5.724;2023-02-15T09:39:12;22.20;;;18.10;;
68921;SDS011;55959;51.244;5.724;2023-02-15T09:53:06;23.60;;;18.23;;
68921;SDS011;55959;51.244;5.724;2023-02-15T09:56:02;23.53;;;18.27;;
68921;SDS011;55959;51.244;5.724;2023-02-15T09:58:45;23.77;;;17.60;;
68921;SDS011;55959;51.244;5.724;2023-02-15T10:04:45;24.77;;;19.60;;
68921;SDS011;55959;51.244;5.724;2023-02-15T10:10:51;25.20;;;19.93;;
68921;SDS011;55959;51.244;5.724;2023-02-15T10:26:17;23.53;;;18.43;;
68921;SDS011;55959;51.244;5.724;2023-02-15T10:28:53;24.23;;;18.07;;
68921;SDS011;55959;51.244;5.724;2023-02-15T10:37:05;29.07;;;20.30;;
68921;SDS011;55959;51.244;5.724;2023-02-15T10:48:28;26.53;;;18.70;;
68921;SDS011;55959;51.244;5.724;2023-02-15T10:51:05;24.20;;;18.93;;
68921;SDS011;55959;51.244;5.724;2023-02-15T10:56:47;23.83;;;19.57;;
68921;SDS011;55959;51.244;5.724;2023-02-15T11:02:12;25.67;;;20.00;;
68921;SDS011;55959;51.244;5.724;2023-02-15T11:05:14;24.53;;;18.90;;
68921;SDS011;55959;51.244;5.724;2023-02-15T11:08:00;26.97;;;21.20;;
68921;SDS011;55959;51.244;5.724;2023-02-15T11:10:37;27.97;;;20.57;;
68921;SDS011;55959;51.244;5.724;2023-02-15T11:13:13;26.97;;;20.67;;
68921;SDS011;55959;51.244;5.724;2023-02-15T11:15:44;29.60;;;20.97;;
68921;SDS011;55959;51.244;5.724;2023-02-15T11:23:32;28.20;;;21.63;;
68921;SDS011;55959;51.244;5.724;2023-02-15T11:26:09;26.90;;;21.63;;
68921;SDS011;55959;51.244;5.724;2023-02-15T11:28:55;26.30;;;20.53;;
68921;SDS011;55959;51.244;5.724;2023-02-15T11:31:46;25.80;;;20.37;;
68921;SDS011;55959;51.244;5.724;2023-02-15T11:34:25;24.33;;;19.37;;
68921;SDS011;55959;51.244;5.724;2023-02-15T11:36:58;22.40;;;18.50;;
68921;SDS011;55959;51.244;5.724;2023-02-15T11:39:42;20.60;;;17.57;;
68921;SDS011;55959;51.244;5.724;2023-02-15T11:42:16;26.17;;;18.63;;
68921;SDS011;55959;51.244;5.724;2023-02-15T11:47:25;28.33;;;19.83;;
68921;SDS011;55959;51.244;5.724;2023-02-15T11:49:52;22.57;;;18.77;;
68921;SDS011;55959;51.244;5.724;2023-02-15T11:52:18;22.57;;;18.67;;
68921;SDS011;55959;51.244;5.724;2023-02-15T11:54:45;25.23;;;18.97;;
68921;SDS011;55959;51.244;5.724;2023-02-15T12:02:35;23.57;;;18.87;;
68921;SDS011;55959;51.244;5.724;2023-02-15T12:05:06;24.17;;;18.77;;
68921;SDS011;55959;51.244;5.724;2023-02-15T12:07:42;22.50;;;19.60;;
68921;SDS011;55959;51.244;5.724;2023-02-15T12:10:25;23.20;;;19.43;;
68921;SDS011;55959;51.244;5.724;2023-02-15T12:13:14;25.47;;;19.97;;
68921;SDS011;55959;51.244;5.724;2023-02-15T12:15:44;29.00;;;20.93;;
68921;SDS011;55959;51.244;5.724;2023-02-15T12:18:17;23.30;;;19.13;;
68921;SDS011;55959;51.244;5.724;2023-02-15T12:20:59;26.27;;;20.77;;
68921;SDS011;55959;51.244;5.724;2023-02-15T12:23:34;25.33;;;20.67;;
68921;SDS011;55959;51.244;5.724;2023-02-15T12:26:27;24.50;;;21.00;;
68921;SDS011;55959;51.244;5.724;2023-02-15T12:28:59;23.30;;;19.13;;
68921;SDS011;55959;51.244;5.724;2023-02-15T12:31:39;22.87;;;19.30;;
68921;SDS011;55959;51.244;5.724;2023-02-15T12:34:17;23.47;;;19.07;;
68921;SDS011;55959;51.244;5.724;2023-02-15T12:36:49;23.13;;;19.33;;
68921;SDS011;55959;51.244;5.724;2023-02-15T12:39:24;25.13;;;19.47;;
68921;SDS011;55959;51.244;5.724;2023-02-15T12:44:35;21.97;;;17.80;;
68921;SDS011;55959;51.244;5.724;2023-02-15T12:49:37;25.47;;;19.30;;
68921;SDS011;55959;51.244;5.724;2023-02-15T12:52:46;24.63;;;19.03;;
68921;SDS011;55959;51.244;5.724;2023-02-15T12:54:51;20.00;;;16.80;;
68921;SDS011;55959;51.244;5.724;2023-02-15T12:57:25;21.67;;;17.57;;
68921;SDS011;55959;51.244;5.724;2023-02-15T12:59:57;21.87;;;16.73;;
68921;SDS011;55959;51.244;5.724;2023-02-15T13:02:25;21.23;;;16.57;;
68921;SDS011;55959;51.244;5.724;2023-02-15T13:05:04;22.27;;;16.10;;
68921;SDS011;55959;51.244;5.724;2023-02-15T13:07:48;21.33;;;15.33;;
68921;SDS011;55959;51.244;5.724;2023-02-15T13:10:28;21.33;;;15.20;;
68921;SDS011;55959;51.244;5.724;2023-02-15T13:12:59;23.10;;;15.70;;
68921;SDS011;55959;51.244;5.724;2023-02-15T13:15:29;18.27;;;14.13;;
68921;SDS011;55959;51.244;5.724;2023-02-15T13:18:04;22.43;;;16.20;;
68921;SDS011;55959;51.244;5.724;2023-02-15T13:20:41;22.17;;;16.37;;
68921;SDS011;55959;51.244;5.724;2023-02-15T13:23:22;21.33;;;16.40;;
68921;SDS011;55959;51.244;5.724;2023-02-15T13:26:02;25.87;;;16.80;;
68921;SDS011;55959;51.244;5.724;2023-02-15T13:28:41;24.87;;;17.13;;
68921;SDS011;55959;51.244;5.724;2023-02-15T13:31:13;22.50;;;16.43;;
68921;SDS011;55959;51.244;5.724;2023-02-15T13:33:45;23.43;;;16.50;;
68921;SDS011;55959;51.244;5.724;2023-02-15T13:36:21;25.83;;;17.17;;
68921;SDS011;55959;51.244;5.724;2023-02-15T13:42:05;20.73;;;14.47;;
68921;SDS011;55959;51.244;5.724;2023-02-15T13:44:57;22.33;;;15.77;;
68921;SDS011;55959;51.244;5.724;2023-02-15T13:54:07;21.07;;;15.03;;
68921;SDS011;55959;51.244;5.724;2023-02-15T14:06:13;21.53;;;14.63;;
68921;SDS011;55959;51.244;5.724;2023-02-15T14:09:31;25.80;;;17.13;;
68921;SDS011;55959;51.244;5.724;2023-02-15T14:21:00;20.97;;;15.33;;
68921;SDS011;55959;51.244;5.724;2023-02-15T14:35:49;21.33;;;14.70;;
68921;SDS011;55959;51.244;5.724;2023-02-15T14:41:19;21.57;;;14.33;;
68921;SDS011;55959;51.244;5.724;2023-02-15T14:44:20;22.43;;;16.50;;
68921;SDS011;55959;51.244;5.724;2023-02-15T14:47:19;24.77;;;16.93;;
68921;SDS011;55959;51.244;5.724;2023-02-15T14:49:52;21.33;;;15.60;;
68921;SDS011;55959;51.244;5.724;2023-02-15T14:52:17;22.80;;;15.93;;
68921;SDS011;55959;51.244;5.724;2023-02-15T15:02:31;21.00;;;15.33;;
68921;SDS011;55959;51.244;5.724;2023-02-15T15:05:08;21.70;;;15.77;;
68921;SDS011;55959;51.244;5.724;2023-02-15T15:07:44;22.23;;;16.00;;
68921;SDS011;55959;51.244;5.724;2023-02-15T15:15:11;23.87;;;16.63;;
68921;SDS011;55959;51.244;5.724;2023-02-15T15:17:59;22.13;;;16.13;;
68921;SDS011;55959;51.244;5.724;2023-02-15T15:20:46;24.13;;;16.40;;
68921;SDS011;55959;51.244;5.724;2023-02-15T15:31:02;24.20;;;16.20;;
68921;SDS011;55959;51.244;5.724;2023-02-15T15:42:50;21.13;;;15.50;;
68921;SDS011;55959;51.244;5.724;2023-02-15T15:50:51;21.43;;;16.23;;
68921;SDS011;55959;51.244;5.724;2023-02-15T15:53:25;20.63;;;16.30;;
68921;SDS011;55959;51.244;5.724;2023-02-15T15:55:55;24.67;;;17.10;;
68921;SDS011;55959;51.244;5.724;2023-02-15T15:58:28;21.03;;;15.47;;
68921;SDS011;55959;51.244;5.724;2023-02-15T16:01:02;22.47;;;16.23;;
68921;SDS011;55959;51.244;5.724;2023-02-15T16:03:32;21.07;;;16.60;;
68921;SDS011;55959;51.244;5.724;2023-02-15T16:05:58;21.97;;;16.00;;
68921;SDS011;55959;51.244;5.724;2023-02-15T16:08:32;21.90;;;16.33;;
68921;SDS011;55959;51.244;5.724;2023-02-15T16:11:34;22.03;;;16.50;;
68921;SDS011;55959;51.244;5.724;2023-02-15T16:13:54;20.03;;;16.13;;
68921;SDS011;55959;51.244;5.724;2023-02-15T16:16:21;22.43;;;16.80;;
68921;SDS011;55959;51.244;5.724;2023-02-15T16:18:52;20.30;;;15.83;;
68921;SDS011;55959;51.244;5.724;2023-02-15T16:21:23;22.33;;;16.10;;
68921;SDS011;55959;51.244;5.724;2023-02-15T16:27:01;22.27;;;16.63;;
68921;SDS011;55959;51.244;5.724;2023-02-15T16:30:13;20.73;;;16.60;;
68921;SDS011;55959;51.244;5.724;2023-02-15T16:33:05;22.00;;;16.50;;
68921;SDS011;55959;51.244;5.724;2023-02-15T16:35:31;20.17;;;15.73;;
68921;SDS011;55959;51.244;5.724;2023-02-15T16:37:58;22.17;;;15.77;;
68921;SDS011;55959;51.244;5.724;2023-02-15T16:42:50;20.23;;;16.87;;
68921;SDS011;55959;51.244;5.724;2023-02-15T16:45:19;21.30;;;16.70;;
68921;SDS011;55959;51.244;5.724;2023-02-15T16:47:49;20.40;;;16.60;;
68921;SDS011;55959;51.244;5.724;2023-02-15T16:52:55;19.77;;;16.13;;
68921;SDS011;55959;51.244;5.724;2023-02-15T16:55:35;22.33;;;17.50;;
68921;SDS011;55959;51.244;5.724;2023-02-15T16:58:05;22.43;;;17.47;;
68921;SDS011;55959;51.244;5.724;2023-02-15T17:00:36;23.60;;;18.70;;
68921;SDS011;55959;51.244;5.724;2023-02-15T17:05:46;22.00;;;17.37;;
68921;SDS011;55959;51.244;5.724;2023-02-15T17:08:19;23.00;;;17.57;;
68921;SDS011;55959;51.244;5.724;2023-02-15T17:19:01;25.70;;;19.17;;
68921;SDS011;55959;51.244;5.724;2023-02-15T17:21:37;24.13;;;19.07;;
68921;SDS011;55959;51.244;5.724;2023-02-15T17:24:15;25.57;;;18.87;;
68921;SDS011;55959;51.244;5.724;2023-02-15T17:26:54;33.60;;;18.70;;
68921;SDS011;55959;51.244;5.724;2023-02-15T17:32:03;24.40;;;18.60;;
68921;SDS011;55959;51.244;5.724;2023-02-15T17:34:41;21.67;;;16.93;;
68921;SDS011;55959;51.244;5.724;2023-02-15T17:40:23;24.73;;;19.40;;
68921;SDS011;55959;51.244;5.724;2023-02-15T17:42:51;26.90;;;20.07;;
68921;SDS011;55959;51.244;5.724;2023-02-15T17:45:17;28.30;;;20.47;;
68921;SDS011;55959;51.244;5.724;2023-02-15T17:47:45;24.93;;;18.87;;
68921;SDS011;55959;51.244;5.724;2023-02-15T17:50:17;25.63;;;19.53;;
68921;SDS011;55959;51.244;5.724;2023-02-15T17:52:44;26.50;;;20.63;;
68921;SDS011;55959;51.244;5.724;2023-02-15T17:55:14;26.80;;;21.70;;
68921;SDS011;55959;51.244;5.724;2023-02-15T17:58:00;26.10;;;21.30;;
68921;SDS011;55959;51.244;5.724;2023-02-15T18:00:28;26.97;;;20.43;;
68921;SDS011;55959;51.244;5.724;2023-02-15T18:03:14;24.63;;;20.27;;
68921;SDS011;55959;51.244;5.724;2023-02-15T18:05:58;23.73;;;18.80;;
68921;SDS011;55959;51.244;5.724;2023-02-15T18:08:43;25.17;;;19.23;;
68921;SDS011;55959;51.244;5.724;2023-02-15T18:11:27;23.47;;;19.33;;
68921;SDS011;55959;51.244;5.724;2023-02-15T18:14:02;25.37;;;19.53;;
68921;SDS011;55959;51.244;5.724;2023-02-15T18:16:34;24.90;;;19.40;;
68921;SDS011;55959;51.244;5.724;2023-02-15T18:19:04;25.10;;;19.93;;
68921;SDS011;55959;51.244;5.724;2023-02-15T18:21:34;28.33;;;23.13;;
68921;SDS011;55959;51.244;5.724;2023-02-15T18:24:00;27.80;;;22.30;;
68921;SDS011;55959;51.244;5.724;2023-02-15T18:26:26;29.27;;;21.87;;